createdAt,value
2023-11-05T00:00:43.384Z,0.70
2023-11-05T00:03:11.377Z,0.60
2023-11-05T00:05:37.926Z,0.60
2023-11-05T00:08:05.076Z,0.73
2023-11-05T00:10:31.781Z,0.80
2023-11-05T00:12:58.407Z,0.60
2023-11-05T00:15:25.081Z,0.67
2023-11-05T00:17:51.644Z,0.90
2023-11-05T00:20:21.215Z,0.68
2023-11-05T00:22:47.693Z,0.63
2023-11-05T00:25:14.264Z,0.60
2023-11-05T00:27:40.780Z,0.63
2023-11-05T00:30:08.547Z,0.60
2023-11-05T00:32:35.103Z,0.52
2023-11-05T00:35:01.793Z,0.40
2023-11-05T00:37:29.711Z,0.60
2023-11-05T00:39:56.223Z,0.50
2023-11-05T00:42:22.699Z,0.40
2023-11-05T00:44:49.396Z,0.60
2023-11-05T00:47:15.912Z,0.60
2023-11-05T00:49:42.593Z,0.70
2023-11-05T00:52:09.197Z,0.70
2023-11-05T00:54:37.106Z,0.60
2023-11-05T00:57:03.589Z,0.50
2023-11-05T00:59:30.087Z,0.50
2023-11-05T01:01:56.622Z,0.73
2023-11-05T01:04:23.201Z,0.73
2023-11-05T01:06:49.757Z,0.50
2023-11-05T01:09:16.370Z,0.70
2023-11-05T01:11:44.315Z,0.60
2023-11-05T01:14:10.918Z,0.65
2023-11-05T01:16:37.447Z,0.73
2023-11-05T01:19:04.328Z,0.90
2023-11-05T01:21:30.876Z,0.80
2023-11-05T01:23:57.409Z,0.57
2023-11-05T01:26:24.026Z,0.85
2023-11-05T01:28:51.980Z,1.00
2023-11-05T01:31:18.552Z,0.80
2023-11-05T01:33:45.228Z,0.50
2023-11-05T01:36:11.812Z,0.70
2023-11-05T01:38:38.280Z,0.70
2023-11-05T01:41:05.212Z,0.50
2023-11-05T01:43:31.928Z,0.93
2023-11-05T01:46:00.283Z,0.50
2023-11-05T01:48:27.802Z,0.70
2023-11-05T01:53:20.873Z,0.80
2023-11-05T01:55:48.258Z,0.60
2023-11-05T01:58:15.172Z,0.60
2023-11-05T02:00:41.894Z,0.70
2023-11-05T02:03:09.924Z,0.73
2023-11-05T02:05:36.590Z,0.60
2023-11-05T02:08:03.423Z,0.50
2023-11-05T02:10:30.005Z,0.90
2023-11-05T02:12:57.501Z,0.70
2023-11-05T02:17:50.495Z,0.65
2023-11-05T02:20:18.579Z,1.10
2023-11-05T02:22:47.617Z,1.02
2023-11-05T02:25:15.754Z,0.82
2023-11-05T02:27:42.296Z,0.65
2023-11-05T02:30:09.561Z,0.80
2023-11-05T02:32:36.104Z,1.38
2023-11-05T02:35:02.791Z,0.80
2023-11-05T02:37:29.329Z,1.73
2023-11-05T02:39:55.936Z,0.90
2023-11-05T02:42:23.963Z,1.00
2023-11-05T02:44:50.508Z,0.60
2023-11-05T02:47:17.047Z,1.35
2023-11-05T02:49:43.870Z,0.82
2023-11-05T02:52:10.408Z,0.82
2023-11-05T02:54:37.008Z,0.77
2023-11-05T02:57:03.592Z,0.87
2023-11-05T02:59:31.526Z,1.00
2023-11-05T03:01:58.007Z,0.93
2023-11-05T03:04:24.606Z,0.70
2023-11-05T03:06:51.224Z,1.17
2023-11-05T03:09:17.857Z,1.20
2023-11-05T03:11:44.420Z,0.83
2023-11-05T03:14:11.143Z,1.25
2023-11-05T03:16:39.355Z,0.88
2023-11-05T03:19:05.903Z,1.00
2023-11-05T03:21:32.502Z,1.08
2023-11-05T03:23:59.094Z,1.23
2023-11-05T03:26:26.164Z,1.17
2023-11-05T03:28:52.674Z,1.13
2023-11-05T03:31:19.277Z,1.10
2023-11-05T03:33:47.164Z,1.17
2023-11-05T03:36:13.675Z,1.05
2023-11-05T03:38:40.182Z,0.93
2023-11-05T03:41:08.562Z,0.90
2023-11-05T03:43:35.196Z,0.80
2023-11-05T03:46:02.602Z,1.60
2023-11-05T03:48:29.248Z,1.30
2023-11-05T03:50:57.344Z,1.30
2023-11-05T03:53:23.848Z,1.48
2023-11-05T03:55:50.514Z,1.05
2023-11-05T03:58:17.052Z,1.73
2023-11-05T04:00:43.564Z,1.10
2023-11-05T04:03:10.118Z,1.10
2023-11-05T04:05:36.679Z,0.80
2023-11-05T04:08:04.983Z,1.03
2023-11-05T04:10:33.596Z,1.15
2023-11-05T04:13:00.349Z,1.00
2023-11-05T04:15:26.843Z,1.00
2023-11-05T04:17:53.356Z,0.90
2023-11-05T04:20:19.935Z,1.27
2023-11-05T04:22:46.481Z,1.73
2023-11-05T04:25:14.832Z,1.33
2023-11-05T04:27:41.336Z,1.10
2023-11-05T04:30:08.692Z,1.10
2023-11-05T04:32:35.285Z,1.55
2023-11-05T04:35:01.862Z,0.97
2023-11-05T04:37:28.362Z,1.33
2023-11-05T04:39:54.905Z,0.80
2023-11-05T04:42:22.777Z,0.95
2023-11-05T04:44:49.274Z,0.98
2023-11-05T04:47:15.754Z,1.00
2023-11-05T04:49:42.338Z,1.15
2023-11-05T04:52:08.896Z,1.30
2023-11-05T04:54:35.376Z,1.17
2023-11-05T04:57:01.916Z,0.80
2023-11-05T04:59:29.762Z,1.77
2023-11-05T05:01:56.248Z,0.90
2023-11-05T05:04:22.848Z,1.42
2023-11-05T05:06:49.603Z,1.15
2023-11-05T05:09:16.186Z,0.75
2023-11-05T05:11:42.692Z,0.90
2023-11-05T05:14:09.176Z,1.40
2023-11-05T05:16:37.133Z,1.13
2023-11-05T05:19:03.653Z,1.40
2023-11-05T05:21:30.141Z,0.95
2023-11-05T05:23:56.650Z,0.80
2023-11-05T05:26:23.239Z,1.25
2023-11-05T05:28:49.741Z,1.13
2023-11-05T05:31:16.760Z,0.90
2023-11-05T05:33:44.715Z,1.27
2023-11-05T05:36:11.343Z,1.55
2023-11-05T05:38:38.544Z,1.27
2023-11-05T05:41:05.953Z,1.90
2023-11-05T05:43:32.478Z,1.00
2023-11-05T05:45:58.991Z,1.23
2023-11-05T05:48:25.601Z,0.80
2023-11-05T05:50:53.590Z,1.03
2023-11-05T05:53:20.132Z,0.85
2023-11-05T05:55:47.039Z,1.23
2023-11-05T05:58:13.976Z,1.15
2023-11-05T06:00:40.562Z,0.80
2023-11-05T06:03:07.172Z,0.80
2023-11-05T06:05:33.760Z,0.90
2023-11-05T06:08:01.984Z,1.00
2023-11-05T06:10:28.516Z,1.30
2023-11-05T06:12:55.100Z,0.85
2023-11-05T06:15:21.612Z,0.70
2023-11-05T06:17:48.239Z,0.80
2023-11-05T06:20:14.859Z,0.80
2023-11-05T06:22:41.576Z,0.87
2023-11-05T06:25:11.032Z,1.02
2023-11-05T06:27:38.240Z,0.70
2023-11-05T06:30:06.071Z,0.90
2023-11-05T06:32:32.852Z,2.05
2023-11-05T06:35:00.855Z,0.88
2023-11-05T06:37:28.225Z,0.65
2023-11-05T06:39:54.802Z,0.75
2023-11-05T06:42:22.746Z,0.80
2023-11-05T06:44:49.475Z,1.10
2023-11-05T06:47:15.985Z,1.00
2023-11-05T06:49:42.858Z,1.47
2023-11-05T06:52:09.501Z,0.70
2023-11-05T06:54:36.357Z,0.60
2023-11-05T06:57:03.387Z,0.98
2023-11-05T06:59:31.366Z,0.80
2023-11-05T07:01:57.875Z,0.80
2023-11-05T07:04:24.449Z,0.63
2023-11-05T07:06:51.070Z,0.40
2023-11-05T07:09:17.919Z,0.80
2023-11-05T07:11:44.491Z,0.60
2023-11-05T07:14:11.433Z,0.80
2023-11-05T07:16:39.442Z,0.80
2023-11-05T07:19:06.088Z,0.68
2023-11-05T07:21:32.611Z,0.50
2023-11-05T07:23:59.119Z,0.57
2023-11-05T07:26:25.592Z,0.80
2023-11-05T07:28:52.118Z,0.50
2023-11-05T07:31:18.812Z,0.50
2023-11-05T07:33:47.115Z,0.67
2023-11-05T07:36:13.756Z,0.30
2023-11-05T07:38:40.421Z,0.63
2023-11-05T07:41:07.368Z,0.50
2023-11-05T07:43:34.320Z,0.30
2023-11-05T07:46:01.260Z,0.60
2023-11-05T07:48:27.966Z,0.65
2023-11-05T07:50:55.812Z,0.53
2023-11-05T07:53:22.393Z,0.40
2023-11-05T07:55:49.165Z,0.50
2023-11-05T07:58:15.768Z,0.60
2023-11-05T08:00:42.442Z,0.67
2023-11-05T08:03:09.027Z,0.43
2023-11-05T08:05:35.731Z,0.30
2023-11-05T08:08:03.787Z,0.40
2023-11-05T08:10:30.323Z,0.45
2023-11-05T08:12:56.914Z,0.65
2023-11-05T08:15:23.501Z,0.40
2023-11-05T08:20:16.837Z,0.60
2023-11-05T08:22:43.881Z,0.40
2023-11-05T08:25:13.350Z,0.60
2023-11-05T08:27:40.303Z,0.40
2023-11-05T08:30:08.258Z,0.50
2023-11-05T08:32:34.857Z,1.23
2023-11-05T08:35:01.422Z,0.60
2023-11-05T08:37:27.974Z,0.55
2023-11-05T08:39:54.784Z,0.57
2023-11-05T08:42:22.663Z,0.43
2023-11-05T08:44:50.210Z,0.70
2023-11-05T08:47:16.896Z,0.68
2023-11-05T08:49:43.480Z,1.60
2023-11-05T08:52:09.992Z,0.60
2023-11-05T08:54:36.789Z,0.63
2023-11-05T08:57:03.362Z,0.60
2023-11-05T08:59:31.248Z,0.50
2023-11-05T09:01:57.852Z,0.38
2023-11-05T09:04:24.526Z,0.60
2023-11-05T09:06:51.157Z,0.80
2023-11-05T09:09:17.717Z,0.90
2023-11-05T09:11:44.257Z,0.88
2023-11-05T09:14:10.759Z,0.60
2023-11-05T09:16:38.621Z,0.43
2023-11-05T09:19:11.239Z,0.60
2023-11-05T09:21:39.985Z,0.68
2023-11-05T09:24:09.231Z,0.70
2023-11-05T09:26:36.794Z,0.50
2023-11-05T09:31:31.558Z,0.60
2023-11-05T09:33:59.788Z,0.60
2023-11-05T09:36:26.291Z,2.13
2023-11-05T09:38:52.835Z,1.40
2023-11-05T09:41:19.532Z,1.88
2023-11-05T09:43:48.640Z,0.97
2023-11-05T09:46:15.536Z,0.80
2023-11-05T09:48:42.220Z,0.55
2023-11-05T09:51:11.891Z,0.47
2023-11-05T09:53:38.695Z,0.40
2023-11-05T09:56:06.638Z,0.50
2023-11-05T09:58:33.220Z,0.77
2023-11-05T10:03:55.359Z,0.77
2023-11-05T10:06:23.225Z,0.77
2023-11-05T10:08:49.785Z,0.77
2023-11-05T10:11:18.893Z,0.80
2023-11-05T10:13:49.635Z,1.38
2023-11-05T10:16:18.534Z,0.50
2023-11-05T10:18:45.164Z,0.65
2023-11-05T10:21:12.568Z,0.90
2023-11-05T10:23:51.374Z,0.60
2023-11-05T10:26:26.544Z,0.70
2023-11-05T10:28:54.385Z,0.73
2023-11-05T10:31:22.334Z,0.40
2023-11-05T10:33:51.442Z,0.35
2023-11-05T10:36:18.268Z,0.68
2023-11-05T10:38:44.798Z,0.60
2023-11-05T10:41:13.328Z,0.47
2023-11-05T10:43:40.083Z,0.35
2023-11-05T10:46:07.678Z,0.60
2023-11-05T10:48:34.916Z,0.30
2023-11-05T10:51:02.742Z,0.50
2023-11-05T10:53:29.325Z,0.43
2023-11-05T10:55:55.914Z,0.55
2023-11-05T10:58:39.755Z,0.47
2023-11-05T11:01:15.457Z,0.22
2023-11-05T11:03:42.154Z,0.40
2023-11-05T11:06:08.832Z,0.60
2023-11-05T11:08:35.545Z,0.50
2023-11-05T11:11:12.359Z,0.47
2023-11-05T11:13:48.501Z,0.65
2023-11-05T11:16:21.127Z,0.30
2023-11-05T11:18:50.908Z,0.50
2023-11-05T11:21:17.408Z,0.30
2023-11-05T11:23:43.940Z,0.50
2023-11-05T11:26:22.997Z,0.40
2023-11-05T11:29:03.036Z,0.40
2023-11-05T11:31:29.677Z,0.50
2023-11-05T11:33:56.390Z,0.30
2023-11-05T11:36:23.041Z,0.47
2023-11-05T11:38:49.531Z,0.40
2023-11-05T11:41:16.119Z,0.50
2023-11-05T11:43:42.767Z,0.60
2023-11-05T11:46:10.928Z,0.60
2023-11-05T11:48:37.514Z,0.40
2023-11-05T11:51:06.494Z,0.50
2023-11-05T11:53:35.044Z,0.40
2023-11-05T11:56:02.274Z,0.32
2023-11-05T11:58:29.244Z,0.60
2023-11-05T12:00:58.006Z,0.65
2023-11-05T12:03:30.206Z,0.98
2023-11-05T12:05:59.647Z,0.57
2023-11-05T12:08:39.179Z,0.43
2023-11-05T12:11:09.339Z,0.40
2023-11-05T12:13:36.679Z,0.40
2023-11-05T12:16:07.920Z,0.50
2023-11-05T12:18:36.104Z,0.50
2023-11-05T12:21:02.862Z,0.57
2023-11-05T12:23:30.171Z,0.80
2023-11-05T12:26:00.244Z,0.80
2023-11-05T12:28:28.224Z,0.52
2023-11-05T12:30:56.720Z,0.52
2023-11-05T12:33:23.290Z,0.40
2023-11-05T12:35:52.329Z,0.60
2023-11-05T12:38:19.374Z,0.75
2023-11-05T12:40:47.703Z,0.70
2023-11-05T12:43:14.339Z,0.60
2023-11-05T12:45:40.890Z,0.75
2023-11-05T12:48:08.130Z,0.70
2023-11-05T12:50:34.994Z,0.50
2023-11-05T12:53:02.975Z,0.95
2023-11-05T12:55:29.512Z,0.80
2023-11-05T12:57:56.389Z,0.50
2023-11-05T13:00:22.990Z,0.80
2023-11-05T13:02:49.664Z,0.90
2023-11-05T13:05:16.583Z,0.70
2023-11-05T13:07:43.329Z,0.47
2023-11-05T13:10:11.344Z,0.55
2023-11-05T13:12:37.861Z,0.60
2023-11-05T13:15:05.119Z,0.60
2023-11-05T13:17:31.643Z,1.00
2023-11-05T13:19:58.183Z,0.70
2023-11-05T13:22:24.793Z,0.70
2023-11-05T13:24:51.272Z,0.70
2023-11-05T13:27:19.101Z,0.98
2023-11-05T13:29:45.665Z,0.40
2023-11-05T13:32:12.200Z,0.60
2023-11-05T13:34:38.718Z,0.50
2023-11-05T13:37:05.371Z,0.55
2023-11-05T13:39:31.869Z,0.80
2023-11-05T13:41:58.353Z,0.65
2023-11-05T13:44:26.184Z,0.40
2023-11-05T13:46:52.757Z,0.43
2023-11-05T13:49:19.862Z,0.77
2023-11-05T13:51:46.513Z,1.08
2023-11-05T13:54:13.054Z,1.77
2023-11-05T13:56:39.558Z,0.70
2023-11-05T13:59:06.078Z,0.80
2023-11-05T14:01:33.914Z,0.95
2023-11-05T14:04:00.491Z,1.27
2023-11-05T14:06:27.034Z,0.80
2023-11-05T14:08:53.575Z,0.70
2023-11-05T14:11:20.065Z,0.95
2023-11-05T14:13:46.630Z,0.82
2023-11-05T14:16:15.210Z,0.80
2023-11-05T14:18:44.117Z,0.70
2023-11-05T14:21:10.595Z,0.80
2023-11-05T14:23:37.080Z,0.65
2023-11-05T14:26:03.987Z,0.85
2023-11-05T14:28:30.512Z,0.60
2023-11-05T14:30:57.011Z,0.95
2023-11-05T14:33:23.507Z,0.60
2023-11-05T14:35:51.417Z,0.93
2023-11-05T14:38:17.967Z,0.55
2023-11-05T14:40:44.498Z,0.70
2023-11-05T14:43:11.107Z,1.50
2023-11-05T14:45:37.632Z,0.75
2023-11-05T14:48:04.359Z,0.60
2023-11-05T14:50:30.930Z,0.90
2023-11-05T14:52:58.830Z,0.70
2023-11-05T14:55:25.395Z,0.70
2023-11-05T14:57:51.938Z,1.23
2023-11-05T15:00:18.809Z,0.77
2023-11-05T15:02:45.950Z,0.70
2023-11-05T15:05:13.558Z,0.73
2023-11-05T15:07:40.406Z,0.82
2023-11-05T15:10:08.864Z,0.57
2023-11-05T15:12:36.195Z,0.75
2023-11-05T15:15:02.955Z,1.00
2023-11-05T15:17:29.527Z,0.93
2023-11-05T15:19:56.492Z,0.82
2023-11-05T15:22:23.017Z,0.63
2023-11-05T15:24:49.556Z,0.70
2023-11-05T15:27:17.410Z,1.02
2023-11-05T15:29:43.896Z,0.68
2023-11-05T15:32:10.426Z,0.80
2023-11-05T15:34:37.784Z,1.33
2023-11-05T15:39:30.680Z,0.77
2023-11-05T15:41:57.170Z,0.80
2023-11-05T15:44:25.006Z,0.90
2023-11-05T15:46:51.631Z,0.70
2023-11-05T15:49:18.169Z,0.60
2023-11-05T15:51:44.729Z,0.98
2023-11-05T15:54:11.275Z,0.83
2023-11-05T15:56:37.796Z,0.88
2023-11-05T15:59:04.669Z,1.17
2023-11-05T16:01:32.636Z,0.95
2023-11-05T16:03:59.306Z,1.95
2023-11-05T16:06:25.853Z,1.30
2023-11-05T16:08:52.607Z,0.60
2023-11-05T16:11:19.073Z,1.05
2023-11-05T16:13:45.646Z,0.80
2023-11-05T16:16:12.165Z,1.00
2023-11-05T16:18:40.045Z,1.00
2023-11-05T16:21:06.637Z,1.20
2023-11-05T16:23:33.120Z,1.58
2023-11-05T16:25:59.681Z,1.02
2023-11-05T16:28:26.200Z,1.00
2023-11-05T16:30:52.737Z,1.20
2023-11-05T16:33:20.707Z,1.17
2023-11-05T16:35:49.726Z,1.17
2023-11-05T16:38:16.236Z,1.33
2023-11-05T16:40:42.938Z,1.27
2023-11-05T16:43:09.440Z,1.10
2023-11-05T16:45:35.932Z,1.42
2023-11-05T16:48:02.548Z,0.98
2023-11-05T16:50:29.144Z,1.30
2023-11-05T16:52:57.259Z,1.77
2023-11-05T16:55:23.780Z,1.20
2023-11-05T16:57:50.293Z,2.40
2023-11-05T17:00:17.269Z,1.27
2023-11-05T17:02:43.977Z,1.27
2023-11-05T17:05:10.577Z,1.40
2023-11-05T17:07:37.146Z,1.10
2023-11-05T17:10:06.476Z,1.40
2023-11-05T17:12:33.031Z,1.20
2023-11-05T17:14:59.509Z,1.27
2023-11-05T17:17:25.987Z,1.02
2023-11-05T17:19:52.540Z,2.67
2023-11-05T17:22:19.020Z,1.83
2023-11-05T17:24:45.493Z,1.58
2023-11-05T17:27:13.526Z,1.33
2023-11-05T17:29:40.025Z,1.58
2023-11-05T17:32:06.837Z,1.58
2023-11-05T17:34:33.369Z,1.83
2023-11-05T17:36:59.887Z,1.60
2023-11-05T17:39:26.377Z,2.13
2023-11-05T17:41:53.005Z,2.03
2023-11-05T17:44:20.854Z,2.78
2023-11-05T17:46:47.394Z,2.58
2023-11-05T17:49:13.932Z,3.22
2023-11-05T17:51:40.455Z,1.70
2023-11-05T17:54:07.340Z,1.60
2023-11-05T17:56:33.820Z,1.70
2023-11-05T17:59:00.463Z,2.10
2023-11-05T18:01:28.317Z,1.90
2023-11-05T18:03:54.914Z,1.55
2023-11-05T18:06:21.451Z,1.50
2023-11-05T18:08:47.966Z,1.80
2023-11-05T18:11:14.605Z,1.40
2023-11-05T18:13:41.196Z,1.33
2023-11-05T18:16:08.192Z,1.80
2023-11-05T18:18:36.130Z,1.80
2023-11-05T18:21:02.829Z,1.25
2023-11-05T18:23:29.355Z,1.13
2023-11-05T18:25:56.037Z,1.33
2023-11-05T18:28:22.626Z,1.55
2023-11-05T18:30:49.138Z,1.00
2023-11-05T18:33:15.736Z,1.15
2023-11-05T18:35:43.712Z,1.23
2023-11-05T18:38:10.237Z,1.10
2023-11-05T18:40:36.770Z,1.02
2023-11-05T18:43:03.264Z,1.30
2023-11-05T18:45:29.799Z,0.85
2023-11-05T18:47:56.409Z,1.17
2023-11-05T18:50:22.960Z,1.00
2023-11-05T18:52:50.896Z,0.88
2023-11-05T18:55:17.527Z,1.00
2023-11-05T18:57:44.252Z,1.30
2023-11-05T19:00:11.511Z,1.17
2023-11-05T19:02:38.059Z,1.02
2023-11-05T19:05:05.187Z,1.30
2023-11-05T19:07:31.801Z,1.10
2023-11-05T19:09:59.636Z,1.27
2023-11-05T19:12:26.141Z,0.68
2023-11-05T19:14:52.635Z,0.93
2023-11-05T19:17:19.146Z,1.02
2023-11-05T19:19:45.696Z,1.65
2023-11-05T19:22:12.200Z,0.70
2023-11-05T19:24:38.771Z,1.02
2023-11-05T19:27:06.830Z,1.17
2023-11-05T19:29:35.462Z,1.08
2023-11-05T19:32:03.730Z,0.90
2023-11-05T19:34:30.213Z,1.17
2023-11-05T19:36:56.711Z,0.93
2023-11-05T19:39:23.211Z,1.30
2023-11-05T19:41:49.689Z,1.30
2023-11-05T19:44:17.577Z,1.08
2023-11-05T19:46:44.110Z,1.13
2023-11-05T19:49:10.715Z,1.23
2023-11-05T19:51:37.694Z,1.30
2023-11-05T19:54:04.569Z,2.20
2023-11-05T19:56:31.118Z,2.15
2023-11-05T19:58:58.168Z,2.83
2023-11-05T20:01:25.993Z,1.58
2023-11-05T20:03:52.515Z,2.08
2023-11-05T20:06:20.040Z,2.00
2023-11-05T20:11:13.866Z,3.03
2023-11-05T20:13:41.827Z,2.25
2023-11-05T20:16:08.440Z,2.25
2023-11-05T20:18:36.315Z,2.00
2023-11-05T20:21:03.016Z,1.83
2023-11-05T20:23:30.168Z,1.93
2023-11-05T20:25:56.712Z,2.00
2023-11-05T20:28:23.243Z,1.67
2023-11-05T20:30:49.777Z,2.13
2023-11-05T20:33:16.369Z,1.95
2023-11-05T20:35:44.251Z,1.17
2023-11-05T20:38:10.872Z,1.35
2023-11-05T20:40:37.443Z,1.43
2023-11-05T20:43:03.982Z,1.30
2023-11-05T20:45:30.673Z,1.13
2023-11-05T20:47:57.354Z,1.83
2023-11-05T20:50:23.881Z,1.20
2023-11-05T20:52:52.073Z,1.05
2023-11-05T20:55:18.902Z,1.35
2023-11-05T20:57:45.507Z,1.38
2023-11-05T21:00:13.056Z,1.40
2023-11-05T21:02:39.626Z,1.00
2023-11-05T21:05:06.749Z,1.37
2023-11-05T21:07:33.474Z,1.38
2023-11-05T21:23:31.460Z,2.28
2023-11-05T21:25:59.409Z,1.35
2023-11-05T21:28:51.593Z,1.20
2023-11-05T21:34:33.535Z,1.40
2023-11-05T21:37:00.106Z,1.50
2023-11-05T21:39:26.573Z,1.10
2023-11-05T21:41:54.440Z,0.70
2023-11-05T21:44:20.994Z,0.73
2023-11-05T21:46:47.488Z,0.70
2023-11-05T21:49:14.980Z,1.37
2023-11-05T21:51:41.664Z,1.77
2023-11-05T21:54:08.722Z,1.15
2023-11-05T21:56:35.260Z,1.58
2023-11-05T21:59:03.226Z,1.37
2023-11-05T22:01:29.924Z,2.00
2023-11-05T22:03:56.516Z,1.93
2023-11-05T22:06:23.146Z,1.53
2023-11-05T22:08:49.824Z,1.47
2023-11-05T22:11:16.380Z,1.73
2023-11-05T22:13:42.935Z,1.60
2023-11-05T22:16:10.830Z,1.70
2023-11-05T22:18:37.476Z,1.70
2023-11-05T22:21:04.592Z,1.87
2023-11-05T22:23:31.121Z,1.95
2023-11-05T22:25:57.649Z,1.50
2023-11-05T22:28:24.305Z,1.40
2023-11-05T22:30:50.834Z,1.17
2023-11-05T22:33:18.799Z,2.05
2023-11-05T22:35:45.395Z,1.60
2023-11-05T22:38:12.053Z,1.60
2023-11-05T22:40:38.594Z,1.15
2023-11-05T22:43:05.306Z,1.63
2023-11-05T22:45:31.889Z,1.53
2023-11-05T22:47:58.429Z,1.10
2023-11-05T22:50:26.379Z,1.40
2023-11-05T22:52:52.950Z,2.30
2023-11-05T22:55:19.716Z,1.60
2023-11-05T22:57:46.336Z,1.55
2023-11-05T23:00:13.356Z,1.57
2023-11-05T23:02:40.042Z,1.88
2023-11-05T23:05:07.008Z,1.67
2023-11-05T23:07:34.960Z,1.35
2023-11-05T23:10:01.549Z,1.75
2023-11-05T23:12:28.063Z,1.97
2023-11-05T23:14:54.552Z,1.83
2023-11-05T23:17:21.348Z,1.52
2023-11-05T23:19:48.112Z,1.27
2023-11-05T23:22:14.614Z,1.50
2023-11-05T23:24:42.450Z,1.38
2023-11-05T23:27:08.938Z,1.95
2023-11-05T23:29:35.512Z,1.70
2023-11-05T23:32:02.070Z,1.50
2023-11-05T23:34:28.646Z,1.60
2023-11-05T23:36:55.418Z,1.43
2023-11-05T23:39:21.930Z,1.67
2023-11-05T23:41:49.754Z,1.52
2023-11-05T23:44:16.289Z,1.33
2023-11-05T23:46:42.817Z,1.52
2023-11-05T23:49:09.336Z,1.50
2023-11-05T23:51:35.833Z,2.00
2023-11-05T23:54:02.336Z,1.83
2023-11-05T23:56:28.966Z,1.67
2023-11-05T23:58:56.798Z,2.00
